This is the latest recevied weather packets stored in our database for station/object EW5546. If no packets are shown the sender has not sent any weather packets the latest 10 day(s).
| Time | Temp. | Humidity | Pressure | Rain* | Wind** | Luminosity | Snow |
|---|---|---|---|---|---|---|---|
| 1777751424 | 18.33° C | 24% | 1018.1 hPa | 0 mm | - | - | - |
| 1777750222 | 18.33° C | 23% | 1018.1 hPa | 0 mm | - | - | - |
| 1777749621 | 18.89° C | 20% | 1018.1 hPa | 0 mm | - | - | - |
| 1777743638 | 21.67° C | 3% | 1018.1 hPa | 0 mm | - | - | - |
| 1777742445 | 22.22° C | 3% | 1018.1 hPa | 0 mm | - | - | - |
| 1777740627 | 22.78° C | 3% | 1018.1 hPa | 0 mm | - | - | - |
| 1777740045 | 22.78° C | 2% | 1018.1 hPa | 0 mm | - | - | - |
| 1777736425 | 24.44° C | 2% | 1018.1 hPa | 0 mm | - | - | - |
| 1777734638 | 25.56° C | 2% | 1019.1 hPa | 0 mm | - | - | - |
| 1777734019 | 26.11° C | 2% | 1019.1 hPa | 0 mm | - | - | - |
| 1777730431 | 27.78° C | 4% | 1019.1 hPa | 0 mm | - | - | - |
| 1777729845 | 27.78° C | 7% | 1019.1 hPa | 0 mm | - | - | - |
| 1777729222 | 27.22° C | 8% | 1019.1 hPa | 0 mm | - | - | - |
| 1777726245 | 25.56° C | 20% | 1020.1 hPa | 0 mm | - | - | - |
| 1777724444 | 24.44° C | 22% | 1021.1 hPa | 0 mm | - | - | - |
| 1777723232 | 23.89° C | 23% | 1021.1 hPa | 0 mm | - | - | - |
| 1777722632 | 23.33° C | 23% | 1021.1 hPa | 0 mm | - | - | - |
| 1777720823 | 22.78° C | 24% | 1021.5 hPa | 0 mm | - | - | - |
| 1777716620 | 22.22° C | 27% | 1022.1 hPa | 0 mm | - | - | - |
| 1777713036 | 21.11° C | 32% | 1022.1 hPa | 0 mm | - | - | - |
| 1777710631 | 20° C | 34% | 1023.1 hPa | 0 mm | - | - | - |
| 1777708831 | 19.44° C | 34% | 1023.1 hPa | 0 mm | - | - | - |
| 1777701656 | 15.56° C | 40% | 1023.1 hPa | 0 mm | - | - | - |
| 1777699830 | 14.44° C | 41% | 1023.1 hPa | 0 mm | - | - | - |
| 1777698616 | 13.33° C | 42% | 1023.1 hPa | 0 mm | - | - | - |
* Rain latest hour (hover to see other rain measurements)
** Current wind speed in m/s (hover to see current wind gust speed)